sensor_id;sensor_type;location;lat;lon;timestamp;P1;durP1;ratioP1;P2;durP2;ratioP2
20391;SDS011;10355;53.688;10.078;2023-03-13T00:00:04;10.95;;;3.85;;
20391;SDS011;10355;53.688;10.078;2023-03-13T00:02:49;10.55;;;3.20;;
20391;SDS011;10355;53.688;10.078;2023-03-13T00:05:33;11.70;;;3.60;;
20391;SDS011;10355;53.688;10.078;2023-03-13T00:08:16;12.23;;;3.25;;
20391;SDS011;10355;53.688;10.078;2023-03-13T00:11:01;12.38;;;3.50;;
20391;SDS011;10355;53.688;10.078;2023-03-13T00:13:45;16.15;;;3.78;;
20391;SDS011;10355;53.688;10.078;2023-03-13T00:16:27;16.23;;;3.30;;
20391;SDS011;10355;53.688;10.078;2023-03-13T00:19:10;17.38;;;3.30;;
20391;SDS011;10355;53.688;10.078;2023-03-13T00:21:53;13.30;;;3.65;;
20391;SDS011;10355;53.688;10.078;2023-03-13T00:24:36;14.20;;;3.50;;
20391;SDS011;10355;53.688;10.078;2023-03-13T00:27:18;15.93;;;3.50;;
20391;SDS011;10355;53.688;10.078;2023-03-13T00:30:03;12.25;;;3.17;;
20391;SDS011;10355;53.688;10.078;2023-03-13T00:32:46;15.52;;;3.42;;
20391;SDS011;10355;53.688;10.078;2023-03-13T00:35:29;17.40;;;3.65;;
20391;SDS011;10355;53.688;10.078;2023-03-13T00:38:12;14.10;;;2.97;;
20391;SDS011;10355;53.688;10.078;2023-03-13T00:40:58;17.08;;;3.28;;
20391;SDS011;10355;53.688;10.078;2023-03-13T00:43:41;15.60;;;3.40;;
20391;SDS011;10355;53.688;10.078;2023-03-13T00:46:27;18.20;;;3.95;;
20391;SDS011;10355;53.688;10.078;2023-03-13T00:49:10;10.75;;;2.90;;
20391;SDS011;10355;53.688;10.078;2023-03-13T00:51:52;14.68;;;3.17;;
20391;SDS011;10355;53.688;10.078;2023-03-13T00:54:36;16.13;;;4.22;;
20391;SDS011;10355;53.688;10.078;2023-03-13T00:57:19;16.65;;;3.20;;
20391;SDS011;10355;53.688;10.078;2023-03-13T01:00:02;17.77;;;3.92;;
20391;SDS011;10355;53.688;10.078;2023-03-13T01:02:49;13.45;;;3.30;;
20391;SDS011;10355;53.688;10.078;2023-03-13T01:05:31;18.52;;;3.58;;
20391;SDS011;10355;53.688;10.078;2023-03-13T01:08:14;14.98;;;3.33;;
20391;SDS011;10355;53.688;10.078;2023-03-13T01:10:57;12.52;;;3.60;;
20391;SDS011;10355;53.688;10.078;2023-03-13T01:13:40;16.38;;;3.63;;
20391;SDS011;10355;53.688;10.078;2023-03-13T01:16:23;16.60;;;3.45;;
20391;SDS011;10355;53.688;10.078;2023-03-13T01:19:09;16.27;;;3.53;;
20391;SDS011;10355;53.688;10.078;2023-03-13T01:21:53;14.32;;;3.33;;
20391;SDS011;10355;53.688;10.078;2023-03-13T01:24:38;16.40;;;3.55;;
20391;SDS011;10355;53.688;10.078;2023-03-13T01:27:20;18.80;;;3.95;;
20391;SDS011;10355;53.688;10.078;2023-03-13T01:30:03;18.05;;;3.40;;
20391;SDS011;10355;53.688;10.078;2023-03-13T01:32:46;21.63;;;3.63;;
20391;SDS011;10355;53.688;10.078;2023-03-13T01:35:30;13.38;;;3.47;;
20391;SDS011;10355;53.688;10.078;2023-03-13T01:38:13;12.23;;;3.33;;
20391;SDS011;10355;53.688;10.078;2023-03-13T01:40:56;17.52;;;3.88;;
20391;SDS011;10355;53.688;10.078;2023-03-13T01:43:38;15.95;;;3.50;;
20391;SDS011;10355;53.688;10.078;2023-03-13T01:46:22;14.75;;;3.40;;
20391;SDS011;10355;53.688;10.078;2023-03-13T01:49:19;11.95;;;3.90;;
20391;SDS011;10355;53.688;10.078;2023-03-13T01:52:13;16.05;;;3.38;;
20391;SDS011;10355;53.688;10.078;2023-03-13T01:55:04;16.02;;;3.92;;
20391;SDS011;10355;53.688;10.078;2023-03-13T01:57:49;18.15;;;3.55;;
20391;SDS011;10355;53.688;10.078;2023-03-13T02:00:34;17.50;;;3.28;;
20391;SDS011;10355;53.688;10.078;2023-03-13T02:03:22;17.80;;;4.00;;
20391;SDS011;10355;53.688;10.078;2023-03-13T02:06:05;17.33;;;3.65;;
20391;SDS011;10355;53.688;10.078;2023-03-13T02:08:51;20.90;;;4.18;;
20391;SDS011;10355;53.688;10.078;2023-03-13T02:11:39;10.60;;;2.97;;
20391;SDS011;10355;53.688;10.078;2023-03-13T02:14:24;21.42;;;3.88;;
20391;SDS011;10355;53.688;10.078;2023-03-13T02:17:08;16.60;;;3.03;;
20391;SDS011;10355;53.688;10.078;2023-03-13T02:19:51;21.08;;;3.38;;
20391;SDS011;10355;53.688;10.078;2023-03-13T02:22:35;19.17;;;3.85;;
20391;SDS011;10355;53.688;10.078;2023-03-13T02:25:27;17.55;;;3.80;;
20391;SDS011;10355;53.688;10.078;2023-03-13T02:28:12;14.70;;;3.17;;
20391;SDS011;10355;53.688;10.078;2023-03-13T02:30:57;13.85;;;3.10;;
20391;SDS011;10355;53.688;10.078;2023-03-13T02:33:40;18.65;;;3.13;;
20391;SDS011;10355;53.688;10.078;2023-03-13T02:36:27;19.30;;;3.58;;
20391;SDS011;10355;53.688;10.078;2023-03-13T02:39:12;14.10;;;3.22;;
20391;SDS011;10355;53.688;10.078;2023-03-13T02:41:57;16.75;;;3.35;;
20391;SDS011;10355;53.688;10.078;2023-03-13T02:44:41;13.60;;;3.60;;
20391;SDS011;10355;53.688;10.078;2023-03-13T02:47:26;15.38;;;3.20;;
20391;SDS011;10355;53.688;10.078;2023-03-13T02:50:09;16.00;;;3.75;;
20391;SDS011;10355;53.688;10.078;2023-03-13T02:52:53;17.17;;;3.55;;
20391;SDS011;10355;53.688;10.078;2023-03-13T02:55:38;12.35;;;2.85;;
20391;SDS011;10355;53.688;10.078;2023-03-13T02:58:24;20.85;;;3.80;;
20391;SDS011;10355;53.688;10.078;2023-03-13T03:01:07;10.13;;;3.20;;
20391;SDS011;10355;53.688;10.078;2023-03-13T03:03:53;14.85;;;2.88;;
20391;SDS011;10355;53.688;10.078;2023-03-13T03:06:35;18.05;;;4.25;;
20391;SDS011;10355;53.688;10.078;2023-03-13T03:09:19;12.95;;;3.47;;
20391;SDS011;10355;53.688;10.078;2023-03-13T03:12:05;11.80;;;2.70;;
20391;SDS011;10355;53.688;10.078;2023-03-13T03:14:49;16.52;;;3.05;;
20391;SDS011;10355;53.688;10.078;2023-03-13T03:17:31;11.27;;;2.90;;
20391;SDS011;10355;53.688;10.078;2023-03-13T03:20:14;20.65;;;3.50;;
20391;SDS011;10355;53.688;10.078;2023-03-13T03:22:57;14.70;;;2.92;;
20391;SDS011;10355;53.688;10.078;2023-03-13T03:25:40;15.40;;;3.15;;
20391;SDS011;10355;53.688;10.078;2023-03-13T03:28:23;16.13;;;3.30;;
20391;SDS011;10355;53.688;10.078;2023-03-13T03:31:08;17.20;;;3.15;;
20391;SDS011;10355;53.688;10.078;2023-03-13T03:33:51;11.57;;;2.78;;
20391;SDS011;10355;53.688;10.078;2023-03-13T03:36:34;10.70;;;2.30;;
20391;SDS011;10355;53.688;10.078;2023-03-13T03:39:16;9.55;;;2.53;;
20391;SDS011;10355;53.688;10.078;2023-03-13T03:42:00;15.32;;;3.10;;
20391;SDS011;10355;53.688;10.078;2023-03-13T03:44:42;12.95;;;3.00;;
20391;SDS011;10355;53.688;10.078;2023-03-13T03:47:28;16.05;;;2.88;;
20391;SDS011;10355;53.688;10.078;2023-03-13T03:50:12;12.30;;;2.72;;
20391;SDS011;10355;53.688;10.078;2023-03-13T03:53:04;12.20;;;2.78;;
20391;SDS011;10355;53.688;10.078;2023-03-13T03:55:48;15.65;;;2.97;;
20391;SDS011;10355;53.688;10.078;2023-03-13T03:58:31;12.25;;;2.38;;
20391;SDS011;10355;53.688;10.078;2023-03-13T04:01:26;11.50;;;2.63;;
20391;SDS011;10355;53.688;10.078;2023-03-13T04:04:10;13.77;;;2.97;;
20391;SDS011;10355;53.688;10.078;2023-03-13T04:06:55;13.18;;;2.33;;
20391;SDS011;10355;53.688;10.078;2023-03-13T04:09:40;12.63;;;2.65;;
20391;SDS011;10355;53.688;10.078;2023-03-13T04:12:27;11.32;;;2.90;;
20391;SDS011;10355;53.688;10.078;2023-03-13T04:15:10;12.88;;;2.60;;
20391;SDS011;10355;53.688;10.078;2023-03-13T04:17:54;12.65;;;2.35;;
20391;SDS011;10355;53.688;10.078;2023-03-13T04:20:38;12.52;;;2.92;;
20391;SDS011;10355;53.688;10.078;2023-03-13T04:23:21;15.07;;;3.40;;
20391;SDS011;10355;53.688;10.078;2023-03-13T04:26:05;14.25;;;2.80;;
20391;SDS011;10355;53.688;10.078;2023-03-13T04:28:48;10.02;;;2.50;;
20391;SDS011;10355;53.688;10.078;2023-03-13T04:31:36;10.00;;;2.50;;
20391;SDS011;10355;53.688;10.078;2023-03-13T04:34:33;11.70;;;2.70;;
20391;SDS011;10355;53.688;10.078;2023-03-13T04:37:52;10.88;;;2.55;;
20391;SDS011;10355;53.688;10.078;2023-03-13T04:40:54;15.73;;;2.53;;
20391;SDS011;10355;53.688;10.078;2023-03-13T04:43:54;12.77;;;2.38;;
20391;SDS011;10355;53.688;10.078;2023-03-13T04:47:00;8.75;;;2.35;;
20391;SDS011;10355;53.688;10.078;2023-03-13T04:50:00;10.38;;;2.45;;
20391;SDS011;10355;53.688;10.078;2023-03-13T04:53:05;11.55;;;2.47;;
20391;SDS011;10355;53.688;10.078;2023-03-13T04:56:20;13.23;;;2.55;;
20391;SDS011;10355;53.688;10.078;2023-03-13T04:59:43;13.38;;;2.67;;
20391;SDS011;10355;53.688;10.078;2023-03-13T05:03:01;8.48;;;2.67;;
20391;SDS011;10355;53.688;10.078;2023-03-13T05:06:02;15.75;;;2.80;;
20391;SDS011;10355;53.688;10.078;2023-03-13T05:09:05;9.15;;;2.55;;
20391;SDS011;10355;53.688;10.078;2023-03-13T05:12:06;9.38;;;2.63;;
20391;SDS011;10355;53.688;10.078;2023-03-13T05:15:15;10.70;;;2.50;;
20391;SDS011;10355;53.688;10.078;2023-03-13T05:18:30;10.30;;;2.80;;
20391;SDS011;10355;53.688;10.078;2023-03-13T05:21:25;12.88;;;2.42;;
20391;SDS011;10355;53.688;10.078;2023-03-13T05:24:27;11.40;;;2.45;;
20391;SDS011;10355;53.688;10.078;2023-03-13T05:27:20;11.25;;;2.53;;
20391;SDS011;10355;53.688;10.078;2023-03-13T05:30:18;8.82;;;2.28;;
20391;SDS011;10355;53.688;10.078;2023-03-13T05:33:17;9.23;;;2.33;;
20391;SDS011;10355;53.688;10.078;2023-03-13T05:36:10;9.40;;;2.20;;
20391;SDS011;10355;53.688;10.078;2023-03-13T05:39:10;11.10;;;2.38;;
20391;SDS011;10355;53.688;10.078;2023-03-13T05:42:03;7.55;;;2.10;;
20391;SDS011;10355;53.688;10.078;2023-03-13T05:45:00;6.88;;;1.90;;
20391;SDS011;10355;53.688;10.078;2023-03-13T05:48:01;6.70;;;1.92;;
20391;SDS011;10355;53.688;10.078;2023-03-13T05:50:44;9.15;;;2.40;;
20391;SDS011;10355;53.688;10.078;2023-03-13T05:54:02;8.38;;;1.83;;
20391;SDS011;10355;53.688;10.078;2023-03-13T05:57:04;7.60;;;1.98;;
20391;SDS011;10355;53.688;10.078;2023-03-13T05:59:54;8.00;;;2.05;;
20391;SDS011;10355;53.688;10.078;2023-03-13T06:03:05;6.70;;;1.83;;
20391;SDS011;10355;53.688;10.078;2023-03-13T06:05:56;5.80;;;1.67;;
20391;SDS011;10355;53.688;10.078;2023-03-13T06:08:46;8.18;;;1.90;;
20391;SDS011;10355;53.688;10.078;2023-03-13T06:11:29;6.78;;;1.83;;
20391;SDS011;10355;53.688;10.078;2023-03-13T06:14:14;5.38;;;1.25;;
20391;SDS011;10355;53.688;10.078;2023-03-13T06:17:03;4.43;;;1.40;;
20391;SDS011;10355;53.688;10.078;2023-03-13T06:19:46;5.50;;;1.40;;
20391;SDS011;10355;53.688;10.078;2023-03-13T06:22:29;2.72;;;1.38;;
20391;SDS011;10355;53.688;10.078;2023-03-13T06:25:12;5.50;;;1.60;;
20391;SDS011;10355;53.688;10.078;2023-03-13T06:27:54;9.90;;;1.80;;
20391;SDS011;10355;53.688;10.078;2023-03-13T06:30:38;4.55;;;1.40;;
20391;SDS011;10355;53.688;10.078;2023-03-13T06:33:21;3.25;;;1.55;;
20391;SDS011;10355;53.688;10.078;2023-03-13T06:36:04;2.22;;;1.23;;
20391;SDS011;10355;53.688;10.078;2023-03-13T06:38:47;2.83;;;1.17;;
20391;SDS011;10355;53.688;10.078;2023-03-13T06:41:29;5.70;;;1.20;;
20391;SDS011;10355;53.688;10.078;2023-03-13T06:44:13;3.85;;;0.90;;
20391;SDS011;10355;53.688;10.078;2023-03-13T06:46:57;3.92;;;1.00;;
20391;SDS011;10355;53.688;10.078;2023-03-13T06:49:40;2.25;;;1.05;;
20391;SDS011;10355;53.688;10.078;2023-03-13T06:52:22;2.78;;;0.80;;
20391;SDS011;10355;53.688;10.078;2023-03-13T06:55:21;2.42;;;1.00;;
20391;SDS011;10355;53.688;10.078;2023-03-13T06:58:04;1.42;;;0.80;;
20391;SDS011;10355;53.688;10.078;2023-03-13T07:00:47;1.60;;;0.80;;
20391;SDS011;10355;53.688;10.078;2023-03-13T07:03:31;1.67;;;0.85;;
20391;SDS011;10355;53.688;10.078;2023-03-13T07:06:14;2.13;;;0.70;;
20391;SDS011;10355;53.688;10.078;2023-03-13T07:08:56;2.17;;;0.90;;
20391;SDS011;10355;53.688;10.078;2023-03-13T07:11:39;1.35;;;0.77;;
20391;SDS011;10355;53.688;10.078;2023-03-13T07:14:22;2.35;;;0.63;;
20391;SDS011;10355;53.688;10.078;2023-03-13T07:17:04;1.38;;;0.50;;
20391;SDS011;10355;53.688;10.078;2023-03-13T07:19:49;1.25;;;0.60;;
20391;SDS011;10355;53.688;10.078;2023-03-13T07:22:31;1.13;;;0.73;;
20391;SDS011;10355;53.688;10.078;2023-03-13T07:25:14;0.95;;;0.70;;
20391;SDS011;10355;53.688;10.078;2023-03-13T07:27:56;1.25;;;0.77;;
20391;SDS011;10355;53.688;10.078;2023-03-13T07:30:41;2.33;;;0.63;;
20391;SDS011;10355;53.688;10.078;2023-03-13T07:33:24;1.35;;;0.70;;
20391;SDS011;10355;53.688;10.078;2023-03-13T07:36:08;1.58;;;0.60;;
20391;SDS011;10355;53.688;10.078;2023-03-13T07:38:51;1.70;;;0.82;;
20391;SDS011;10355;53.688;10.078;2023-03-13T07:41:34;1.77;;;0.95;;
20391;SDS011;10355;53.688;10.078;2023-03-13T07:44:19;2.15;;;0.75;;
20391;SDS011;10355;53.688;10.078;2023-03-13T07:47:02;0.90;;;0.65;;
20391;SDS011;10355;53.688;10.078;2023-03-13T07:49:44;2.70;;;0.70;;
20391;SDS011;10355;53.688;10.078;2023-03-13T07:52:28;1.35;;;0.80;;
20391;SDS011;10355;53.688;10.078;2023-03-13T07:55:11;0.60;;;0.60;;
20391;SDS011;10355;53.688;10.078;2023-03-13T07:57:54;1.38;;;0.75;;
20391;SDS011;10355;53.688;10.078;2023-03-13T08:00:37;2.05;;;0.82;;
20391;SDS011;10355;53.688;10.078;2023-03-13T08:03:20;2.00;;;0.98;;
20391;SDS011;10355;53.688;10.078;2023-03-13T08:06:04;1.65;;;0.90;;
20391;SDS011;10355;53.688;10.078;2023-03-13T08:08:48;1.13;;;0.77;;
20391;SDS011;10355;53.688;10.078;2023-03-13T08:11:31;1.25;;;0.90;;
20391;SDS011;10355;53.688;10.078;2023-03-13T08:14:14;2.45;;;1.00;;
20391;SDS011;10355;53.688;10.078;2023-03-13T08:16:57;2.08;;;1.00;;
20391;SDS011;10355;53.688;10.078;2023-03-13T08:19:39;1.77;;;0.95;;
20391;SDS011;10355;53.688;10.078;2023-03-13T08:22:22;1.42;;;0.88;;
20391;SDS011;10355;53.688;10.078;2023-03-13T08:25:06;1.42;;;0.88;;
20391;SDS011;10355;53.688;10.078;2023-03-13T08:27:49;1.13;;;1.00;;
20391;SDS011;10355;53.688;10.078;2023-03-13T08:30:31;1.10;;;0.98;;
20391;SDS011;10355;53.688;10.078;2023-03-13T08:33:14;1.95;;;1.13;;
20391;SDS011;10355;53.688;10.078;2023-03-13T08:35:57;2.25;;;1.00;;
20391;SDS011;10355;53.688;10.078;2023-03-13T08:38:40;1.23;;;1.13;;
20391;SDS011;10355;53.688;10.078;2023-03-13T08:41:28;3.63;;;1.38;;
20391;SDS011;10355;53.688;10.078;2023-03-13T08:44:13;1.05;;;0.95;;
20391;SDS011;10355;53.688;10.078;2023-03-13T08:46:56;1.27;;;0.95;;
20391;SDS011;10355;53.688;10.078;2023-03-13T08:49:41;1.02;;;0.93;;
20391;SDS011;10355;53.688;10.078;2023-03-13T08:52:24;1.10;;;0.90;;
20391;SDS011;10355;53.688;10.078;2023-03-13T08:55:08;1.80;;;1.13;;
20391;SDS011;10355;53.688;10.078;2023-03-13T08:57:52;1.52;;;1.20;;
20391;SDS011;10355;53.688;10.078;2023-03-13T09:00:34;2.83;;;1.20;;
20391;SDS011;10355;53.688;10.078;2023-03-13T09:03:17;1.20;;;1.00;;
20391;SDS011;10355;53.688;10.078;2023-03-13T09:06:00;1.42;;;1.20;;
20391;SDS011;10355;53.688;10.078;2023-03-13T09:08:43;1.20;;;1.10;;
20391;SDS011;10355;53.688;10.078;2023-03-13T09:11:26;1.52;;;1.30;;
20391;SDS011;10355;53.688;10.078;2023-03-13T09:14:10;1.60;;;1.20;;
20391;SDS011;10355;53.688;10.078;2023-03-13T09:16:55;1.92;;;1.50;;
20391;SDS011;10355;53.688;10.078;2023-03-13T09:19:39;1.80;;;1.40;;
20391;SDS011;10355;53.688;10.078;2023-03-13T09:22:39;1.38;;;1.17;;
20391;SDS011;10355;53.688;10.078;2023-03-13T09:25:22;3.72;;;1.77;;
20391;SDS011;10355;53.688;10.078;2023-03-13T09:28:05;1.85;;;1.45;;
20391;SDS011;10355;53.688;10.078;2023-03-13T09:30:49;3.90;;;1.80;;
20391;SDS011;10355;53.688;10.078;2023-03-13T09:33:31;1.77;;;1.23;;
20391;SDS011;10355;53.688;10.078;2023-03-13T09:36:14;2.45;;;1.75;;
20391;SDS011;10355;53.688;10.078;2023-03-13T09:39:01;2.75;;;1.70;;
20391;SDS011;10355;53.688;10.078;2023-03-13T09:41:46;4.15;;;1.80;;
20391;SDS011;10355;53.688;10.078;2023-03-13T09:44:32;2.17;;;1.60;;
20391;SDS011;10355;53.688;10.078;2023-03-13T09:47:20;3.60;;;1.52;;
20391;SDS011;10355;53.688;10.078;2023-03-13T09:50:06;2.83;;;1.70;;
20391;SDS011;10355;53.688;10.078;2023-03-13T09:52:53;2.55;;;1.67;;
20391;SDS011;10355;53.688;10.078;2023-03-13T09:55:36;2.78;;;1.55;;
20391;SDS011;10355;53.688;10.078;2023-03-13T09:58:20;3.17;;;1.40;;
20391;SDS011;10355;53.688;10.078;2023-03-13T10:01:03;2.30;;;1.75;;
20391;SDS011;10355;53.688;10.078;2023-03-13T10:03:50;2.45;;;1.55;;
20391;SDS011;10355;53.688;10.078;2023-03-13T10:06:37;3.22;;;1.67;;
20391;SDS011;10355;53.688;10.078;2023-03-13T10:09:22;4.57;;;1.60;;
20391;SDS011;10355;53.688;10.078;2023-03-13T10:12:10;5.35;;;1.98;;
20391;SDS011;10355;53.688;10.078;2023-03-13T10:14:59;4.00;;;1.80;;
20391;SDS011;10355;53.688;10.078;2023-03-13T10:17:44;2.30;;;1.60;;
20391;SDS011;10355;53.688;10.078;2023-03-13T10:20:31;2.17;;;1.60;;
20391;SDS011;10355;53.688;10.078;2023-03-13T10:23:15;4.97;;;1.90;;
20391;SDS011;10355;53.688;10.078;2023-03-13T10:25:59;2.72;;;1.70;;
20391;SDS011;10355;53.688;10.078;2023-03-13T10:28:42;2.95;;;1.83;;
20391;SDS011;10355;53.688;10.078;2023-03-13T10:31:26;2.88;;;1.75;;
20391;SDS011;10355;53.688;10.078;2023-03-13T10:34:13;3.95;;;2.05;;
20391;SDS011;10355;53.688;10.078;2023-03-13T10:36:57;3.22;;;1.80;;
20391;SDS011;10355;53.688;10.078;2023-03-13T10:39:40;3.65;;;1.70;;
20391;SDS011;10355;53.688;10.078;2023-03-13T10:42:25;3.22;;;1.50;;
20391;SDS011;10355;53.688;10.078;2023-03-13T10:45:12;1.90;;;1.55;;
20391;SDS011;10355;53.688;10.078;2023-03-13T10:47:56;3.05;;;1.77;;
20391;SDS011;10355;53.688;10.078;2023-03-13T10:50:42;3.25;;;1.70;;
20391;SDS011;10355;53.688;10.078;2023-03-13T10:53:32;2.85;;;1.80;;
20391;SDS011;10355;53.688;10.078;2023-03-13T10:56:15;5.07;;;1.70;;
20391;SDS011;10355;53.688;10.078;2023-03-13T10:59:00;2.47;;;1.70;;
20391;SDS011;10355;53.688;10.078;2023-03-13T11:01:43;2.45;;;1.75;;
20391;SDS011;10355;53.688;10.078;2023-03-13T11:04:29;2.97;;;1.80;;
20391;SDS011;10355;53.688;10.078;2023-03-13T11:07:13;3.65;;;1.50;;
20391;SDS011;10355;53.688;10.078;2023-03-13T11:09:59;3.47;;;1.30;;
20391;SDS011;10355;53.688;10.078;2023-03-13T11:12:43;2.85;;;1.60;;
20391;SDS011;10355;53.688;10.078;2023-03-13T11:15:27;3.78;;;1.60;;
20391;SDS011;10355;53.688;10.078;2023-03-13T11:18:12;2.58;;;1.55;;
20391;SDS011;10355;53.688;10.078;2023-03-13T11:20:56;3.72;;;1.65;;
20391;SDS011;10355;53.688;10.078;2023-03-13T11:23:57;2.80;;;1.40;;
20391;SDS011;10355;53.688;10.078;2023-03-13T11:26:45;3.25;;;1.50;;
20391;SDS011;10355;53.688;10.078;2023-03-13T11:29:45;2.55;;;1.50;;
20391;SDS011;10355;53.688;10.078;2023-03-13T11:32:33;5.38;;;1.40;;
20391;SDS011;10355;53.688;10.078;2023-03-13T11:35:21;6.05;;;1.70;;
20391;SDS011;10355;53.688;10.078;2023-03-13T11:38:08;2.88;;;1.40;;
20391;SDS011;10355;53.688;10.078;2023-03-13T11:40:56;2.25;;;1.20;;
20391;SDS011;10355;53.688;10.078;2023-03-13T11:43:56;3.22;;;1.40;;
20391;SDS011;10355;53.688;10.078;2023-03-13T11:46:48;2.22;;;1.30;;
20391;SDS011;10355;53.688;10.078;2023-03-13T11:52:42;1.70;;;1.30;;
20391;SDS011;10355;53.688;10.078;2023-03-13T11:55:33;1.63;;;1.00;;
20391;SDS011;10355;53.688;10.078;2023-03-13T11:58:36;2.22;;;1.20;;
20391;SDS011;10355;53.688;10.078;2023-03-13T12:01:22;3.47;;;0.90;;
20391;SDS011;10355;53.688;10.078;2023-03-13T12:04:08;2.15;;;1.05;;
20391;SDS011;10355;53.688;10.078;2023-03-13T12:06:57;1.52;;;0.93;;
20391;SDS011;10355;53.688;10.078;2023-03-13T12:09:46;1.17;;;1.02;;
20391;SDS011;10355;53.688;10.078;2023-03-13T12:12:37;3.00;;;0.90;;
20391;SDS011;10355;53.688;10.078;2023-03-13T12:15:22;2.25;;;1.25;;
20391;SDS011;10355;53.688;10.078;2023-03-13T12:18:08;2.58;;;1.10;;
20391;SDS011;10355;53.688;10.078;2023-03-13T12:20:55;4.18;;;1.13;;
20391;SDS011;10355;53.688;10.078;2023-03-13T12:23:41;1.65;;;1.00;;
20391;SDS011;10355;53.688;10.078;2023-03-13T12:26:26;1.73;;;1.00;;
20391;SDS011;10355;53.688;10.078;2023-03-13T12:29:14;4.10;;;1.10;;
20391;SDS011;10355;53.688;10.078;2023-03-13T12:31:58;3.70;;;1.15;;
20391;SDS011;10355;53.688;10.078;2023-03-13T12:34:49;1.70;;;0.90;;
20391;SDS011;10355;53.688;10.078;2023-03-13T12:37:35;2.33;;;1.02;;
20391;SDS011;10355;53.688;10.078;2023-03-13T12:40:22;2.47;;;1.10;;
20391;SDS011;10355;53.688;10.078;2023-03-13T12:43:09;2.40;;;1.05;;
20391;SDS011;10355;53.688;10.078;2023-03-13T12:45:53;2.50;;;1.23;;
20391;SDS011;10355;53.688;10.078;2023-03-13T12:48:49;1.48;;;1.00;;
20391;SDS011;10355;53.688;10.078;2023-03-13T12:51:40;3.33;;;1.08;;
20391;SDS011;10355;53.688;10.078;2023-03-13T12:54:32;1.75;;;0.98;;
20391;SDS011;10355;53.688;10.078;2023-03-13T12:57:22;1.27;;;0.90;;
20391;SDS011;10355;53.688;10.078;2023-03-13T13:00:10;2.60;;;0.90;;
20391;SDS011;10355;53.688;10.078;2023-03-13T13:03:01;2.08;;;1.10;;
20391;SDS011;10355;53.688;10.078;2023-03-13T13:05:58;2.35;;;1.02;;
20391;SDS011;10355;53.688;10.078;2023-03-13T13:08:43;2.30;;;1.08;;
20391;SDS011;10355;53.688;10.078;2023-03-13T13:11:44;6.95;;;1.10;;
20391;SDS011;10355;53.688;10.078;2023-03-13T13:20:36;2.45;;;1.35;;
20391;SDS011;10355;53.688;10.078;2023-03-13T13:23:21;3.03;;;0.90;;
20391;SDS011;10355;53.688;10.078;2023-03-13T13:32:13;2.65;;;1.02;;
20391;SDS011;10355;53.688;10.078;2023-03-13T13:35:00;3.22;;;1.30;;
20391;SDS011;10355;53.688;10.078;2023-03-13T13:37:42;2.08;;;0.95;;
20391;SDS011;10355;53.688;10.078;2023-03-13T13:40:27;4.13;;;1.17;;
20391;SDS011;10355;53.688;10.078;2023-03-13T13:43:17;4.00;;;1.05;;
20391;SDS011;10355;53.688;10.078;2023-03-13T13:46:02;2.22;;;0.90;;
20391;SDS011;10355;53.688;10.078;2023-03-13T13:48:47;2.60;;;0.88;;
20391;SDS011;10355;53.688;10.078;2023-03-13T13:54:55;2.33;;;1.10;;
20391;SDS011;10355;53.688;10.078;2023-03-13T13:57:38;4.82;;;0.90;;
20391;SDS011;10355;53.688;10.078;2023-03-13T14:00:22;2.10;;;0.85;;
20391;SDS011;10355;53.688;10.078;2023-03-13T14:03:15;2.83;;;1.10;;
20391;SDS011;10355;53.688;10.078;2023-03-13T14:06:00;2.42;;;0.95;;
20391;SDS011;10355;53.688;10.078;2023-03-13T14:08:44;2.20;;;0.80;;
20391;SDS011;10355;53.688;10.078;2023-03-13T14:11:31;5.38;;;1.00;;
20391;SDS011;10355;53.688;10.078;2023-03-13T14:14:16;4.28;;;0.98;;
20391;SDS011;10355;53.688;10.078;2023-03-13T14:16:59;1.98;;;0.90;;
20391;SDS011;10355;53.688;10.078;2023-03-13T14:19:42;2.13;;;1.08;;
20391;SDS011;10355;53.688;10.078;2023-03-13T14:22:28;2.70;;;1.00;;
20391;SDS011;10355;53.688;10.078;2023-03-13T14:25:25;1.35;;;0.98;;
20391;SDS011;10355;53.688;10.078;2023-03-13T14:28:16;2.10;;;0.90;;
20391;SDS011;10355;53.688;10.078;2023-03-13T14:30:59;2.47;;;1.10;;
20391;SDS011;10355;53.688;10.078;2023-03-13T14:33:41;3.00;;;0.82;;
20391;SDS011;10355;53.688;10.078;2023-03-13T14:36:24;3.05;;;1.02;;
20391;SDS011;10355;53.688;10.078;2023-03-13T14:39:11;5.10;;;0.98;;
20391;SDS011;10355;53.688;10.078;2023-03-13T14:42:00;2.40;;;0.88;;
20391;SDS011;10355;53.688;10.078;2023-03-13T14:44:44;1.90;;;1.00;;
20391;SDS011;10355;53.688;10.078;2023-03-13T14:47:29;3.80;;;1.48;;
20391;SDS011;10355;53.688;10.078;2023-03-13T14:50:12;2.17;;;1.00;;
20391;SDS011;10355;53.688;10.078;2023-03-13T14:52:57;2.55;;;1.30;;
20391;SDS011;10355;53.688;10.078;2023-03-13T14:55:42;3.33;;;1.08;;
20391;SDS011;10355;53.688;10.078;2023-03-13T14:58:26;2.65;;;1.02;;
20391;SDS011;10355;53.688;10.078;2023-03-13T15:01:13;3.40;;;1.15;;
20391;SDS011;10355;53.688;10.078;2023-03-13T15:03:56;1.23;;;0.98;;
20391;SDS011;10355;53.688;10.078;2023-03-13T15:06:39;3.38;;;1.33;;
20391;SDS011;10355;53.688;10.078;2023-03-13T15:09:29;2.97;;;0.90;;
20391;SDS011;10355;53.688;10.078;2023-03-13T15:12:15;1.55;;;0.90;;
20391;SDS011;10355;53.688;10.078;2023-03-13T15:14:58;2.40;;;0.90;;
20391;SDS011;10355;53.688;10.078;2023-03-13T15:17:41;4.20;;;1.00;;
20391;SDS011;10355;53.688;10.078;2023-03-13T15:20:23;4.93;;;1.27;;
20391;SDS011;10355;53.688;10.078;2023-03-13T15:23:08;3.33;;;1.13;;
20391;SDS011;10355;53.688;10.078;2023-03-13T15:25:52;1.73;;;1.10;;
20391;SDS011;10355;53.688;10.078;2023-03-13T15:28:36;2.67;;;1.00;;
20391;SDS011;10355;53.688;10.078;2023-03-13T15:31:19;1.27;;;0.90;;
20391;SDS011;10355;53.688;10.078;2023-03-13T15:34:05;1.77;;;1.20;;
20391;SDS011;10355;53.688;10.078;2023-03-13T15:36:48;3.55;;;1.10;;
20391;SDS011;10355;53.688;10.078;2023-03-13T15:39:32;3.75;;;0.90;;
20391;SDS011;10355;53.688;10.078;2023-03-13T15:42:14;2.17;;;0.80;;
20391;SDS011;10355;53.688;10.078;2023-03-13T15:44:58;1.90;;;0.98;;
20391;SDS011;10355;53.688;10.078;2023-03-13T15:47:41;2.42;;;0.93;;
20391;SDS011;10355;53.688;10.078;2023-03-13T15:50:24;2.88;;;0.88;;
20391;SDS011;10355;53.688;10.078;2023-03-13T15:53:15;1.92;;;0.85;;
20391;SDS011;10355;53.688;10.078;2023-03-13T15:55:59;2.35;;;1.00;;
20391;SDS011;10355;53.688;10.078;2023-03-13T15:58:42;2.42;;;0.90;;
20391;SDS011;10355;53.688;10.078;2023-03-13T16:01:26;1.75;;;0.90;;
20391;SDS011;10355;53.688;10.078;2023-03-13T16:04:09;2.97;;;1.05;;
20391;SDS011;10355;53.688;10.078;2023-03-13T16:06:52;2.58;;;0.88;;
20391;SDS011;10355;53.688;10.078;2023-03-13T16:09:34;2.65;;;1.10;;
20391;SDS011;10355;53.688;10.078;2023-03-13T16:12:17;3.20;;;0.90;;
20391;SDS011;10355;53.688;10.078;2023-03-13T16:15:00;2.20;;;0.82;;
20391;SDS011;10355;53.688;10.078;2023-03-13T16:17:46;1.63;;;1.02;;
20391;SDS011;10355;53.688;10.078;2023-03-13T16:20:29;1.25;;;0.77;;
20391;SDS011;10355;53.688;10.078;2023-03-13T16:23:12;1.85;;;0.90;;
20391;SDS011;10355;53.688;10.078;2023-03-13T16:25:55;2.05;;;0.70;;
20391;SDS011;10355;53.688;10.078;2023-03-13T16:28:37;1.40;;;0.80;;
20391;SDS011;10355;53.688;10.078;2023-03-13T16:31:21;3.88;;;1.10;;
20391;SDS011;10355;53.688;10.078;2023-03-13T16:34:05;0.80;;;0.70;;
20391;SDS011;10355;53.688;10.078;2023-03-13T16:36:48;2.38;;;0.80;;
20391;SDS011;10355;53.688;10.078;2023-03-13T16:39:31;1.60;;;0.90;;
20391;SDS011;10355;53.688;10.078;2023-03-13T16:42:13;1.77;;;1.05;;